sensor_id;sensor_type;location;lat;lon;timestamp;temperature;humidity
22738;DHT22;11536;50.860;4.286;2024-03-17T00:00:21;10.10;99.90
22738;DHT22;11536;50.860;4.286;2024-03-17T00:02:47;10.10;99.90
22738;DHT22;11536;50.860;4.286;2024-03-17T00:05:13;10.10;99.90
22738;DHT22;11536;50.860;4.286;2024-03-17T00:07:39;10.10;99.90
22738;DHT22;11536;50.860;4.286;2024-03-17T00:10:06;10.10;99.90
22738;DHT22;11536;50.860;4.286;2024-03-17T00:12:36;10.10;99.90
22738;DHT22;11536;50.860;4.286;2024-03-17T00:15:02;10.10;99.90
22738;DHT22;11536;50.860;4.286;2024-03-17T00:17:28;10.10;99.90
22738;DHT22;11536;50.860;4.286;2024-03-17T00:19:54;10.10;99.90
22738;DHT22;11536;50.860;4.286;2024-03-17T00:22:20;10.10;99.90
22738;DHT22;11536;50.860;4.286;2024-03-17T00:24:46;10.10;99.90
22738;DHT22;11536;50.860;4.286;2024-03-17T00:27:12;10.10;99.90
22738;DHT22;11536;50.860;4.286;2024-03-17T00:29:38;10.10;99.90
22738;DHT22;11536;50.860;4.286;2024-03-17T00:32:05;10.10;99.90
22738;DHT22;11536;50.860;4.286;2024-03-17T00:34:31;10.00;99.90
22738;DHT22;11536;50.860;4.286;2024-03-17T00:36:57;10.00;99.90
22738;DHT22;11536;50.860;4.286;2024-03-17T00:39:22;10.00;99.90
22738;DHT22;11536;50.860;4.286;2024-03-17T00:41:48;10.00;99.90
22738;DHT22;11536;50.860;4.286;2024-03-17T00:44:14;10.00;99.90
22738;DHT22;11536;50.860;4.286;2024-03-17T00:46:40;10.00;99.90
22738;DHT22;11536;50.860;4.286;2024-03-17T00:49:08;9.90;99.90
22738;DHT22;11536;50.860;4.286;2024-03-17T00:51:34;9.90;99.90
22738;DHT22;11536;50.860;4.286;2024-03-17T00:54:00;9.90;99.90
22738;DHT22;11536;50.860;4.286;2024-03-17T00:56:25;9.90;99.90
22738;DHT22;11536;50.860;4.286;2024-03-17T00:58:51;9.90;99.90
22738;DHT22;11536;50.860;4.286;2024-03-17T01:01:18;9.90;99.90
22738;DHT22;11536;50.860;4.286;2024-03-17T01:03:47;9.80;99.90
22738;DHT22;11536;50.860;4.286;2024-03-17T01:06:13;9.90;99.90
22738;DHT22;11536;50.860;4.286;2024-03-17T01:08:39;9.80;99.90
22738;DHT22;11536;50.860;4.286;2024-03-17T01:11:05;9.80;99.90
22738;DHT22;11536;50.860;4.286;2024-03-17T01:13:34;9.80;99.90
22738;DHT22;11536;50.860;4.286;2024-03-17T01:16:03;9.90;99.90
22738;DHT22;11536;50.860;4.286;2024-03-17T01:18:29;9.80;99.90
22738;DHT22;11536;50.860;4.286;2024-03-17T01:20:54;9.80;99.90
22738;DHT22;11536;50.860;4.286;2024-03-17T01:23:20;9.90;99.90
22738;DHT22;11536;50.860;4.286;2024-03-17T01:25:46;9.80;99.90
22738;DHT22;11536;50.860;4.286;2024-03-17T01:28:11;9.90;99.90
22738;DHT22;11536;50.860;4.286;2024-03-17T01:30:37;9.90;99.90
22738;DHT22;11536;50.860;4.286;2024-03-17T01:33:03;9.90;99.90
22738;DHT22;11536;50.860;4.286;2024-03-17T01:35:30;9.90;99.90
22738;DHT22;11536;50.860;4.286;2024-03-17T01:37:56;9.90;99.90
22738;DHT22;11536;50.860;4.286;2024-03-17T01:40:22;9.90;99.90
22738;DHT22;11536;50.860;4.286;2024-03-17T01:42:47;9.90;99.90
22738;DHT22;11536;50.860;4.286;2024-03-17T01:47:51;9.90;99.90
22738;DHT22;11536;50.860;4.286;2024-03-17T01:50:16;9.90;99.90
22738;DHT22;11536;50.860;4.286;2024-03-17T01:52:46;10.00;99.90
22738;DHT22;11536;50.860;4.286;2024-03-17T01:55:12;9.90;99.90
22738;DHT22;11536;50.860;4.286;2024-03-17T01:57:38;10.00;99.90
22738;DHT22;11536;50.860;4.286;2024-03-17T02:00:06;10.00;99.90
22738;DHT22;11536;50.860;4.286;2024-03-17T02:02:34;10.00;99.90
22738;DHT22;11536;50.860;4.286;2024-03-17T02:05:00;10.00;99.90
22738;DHT22;11536;50.860;4.286;2024-03-17T02:07:25;10.00;99.90
22738;DHT22;11536;50.860;4.286;2024-03-17T02:09:51;10.00;99.90
22738;DHT22;11536;50.860;4.286;2024-03-17T02:12:17;10.00;99.90
22738;DHT22;11536;50.860;4.286;2024-03-17T02:14:42;10.00;99.90
22738;DHT22;11536;50.860;4.286;2024-03-17T02:17:08;10.00;99.90
22738;DHT22;11536;50.860;4.286;2024-03-17T02:19:34;10.00;99.90
22738;DHT22;11536;50.860;4.286;2024-03-17T02:22:00;10.00;99.90
22738;DHT22;11536;50.860;4.286;2024-03-17T02:24:26;10.00;99.90
22738;DHT22;11536;50.860;4.286;2024-03-17T02:26:51;10.00;99.90
22738;DHT22;11536;50.860;4.286;2024-03-17T02:29:17;10.00;99.90
22738;DHT22;11536;50.860;4.286;2024-03-17T02:31:43;10.00;99.90
22738;DHT22;11536;50.860;4.286;2024-03-17T02:34:08;10.00;99.90
22738;DHT22;11536;50.860;4.286;2024-03-17T02:36:34;10.00;99.90
22738;DHT22;11536;50.860;4.286;2024-03-17T02:39:00;10.00;99.90
22738;DHT22;11536;50.860;4.286;2024-03-17T02:41:44;10.00;99.90
22738;DHT22;11536;50.860;4.286;2024-03-17T02:44:11;10.00;99.90
22738;DHT22;11536;50.860;4.286;2024-03-17T02:46:37;9.90;99.90
22738;DHT22;11536;50.860;4.286;2024-03-17T02:49:03;10.00;99.90
22738;DHT22;11536;50.860;4.286;2024-03-17T02:51:29;10.00;99.90
22738;DHT22;11536;50.860;4.286;2024-03-17T02:53:55;9.90;99.90
22738;DHT22;11536;50.860;4.286;2024-03-17T02:56:20;9.90;99.90
22738;DHT22;11536;50.860;4.286;2024-03-17T02:58:47;10.00;99.90
22738;DHT22;11536;50.860;4.286;2024-03-17T03:01:13;10.00;99.90
22738;DHT22;11536;50.860;4.286;2024-03-17T03:03:40;10.00;99.90
22738;DHT22;11536;50.860;4.286;2024-03-17T03:06:06;10.00;99.90
22738;DHT22;11536;50.860;4.286;2024-03-17T03:08:35;10.00;99.90
22738;DHT22;11536;50.860;4.286;2024-03-17T03:11:07;10.00;99.90
22738;DHT22;11536;50.860;4.286;2024-03-17T03:13:37;10.00;99.90
22738;DHT22;11536;50.860;4.286;2024-03-17T03:16:03;10.00;99.90
22738;DHT22;11536;50.860;4.286;2024-03-17T03:18:28;10.00;99.90
22738;DHT22;11536;50.860;4.286;2024-03-17T03:20:54;10.00;99.90
22738;DHT22;11536;50.860;4.286;2024-03-17T03:23:20;10.00;99.90
22738;DHT22;11536;50.860;4.286;2024-03-17T03:25:45;10.00;99.90
22738;DHT22;11536;50.860;4.286;2024-03-17T03:28:16;10.10;99.90
22738;DHT22;11536;50.860;4.286;2024-03-17T03:30:41;10.00;99.90
22738;DHT22;11536;50.860;4.286;2024-03-17T03:33:07;10.00;99.90
22738;DHT22;11536;50.860;4.286;2024-03-17T03:35:32;10.00;99.90
22738;DHT22;11536;50.860;4.286;2024-03-17T03:37:59;10.00;99.90
22738;DHT22;11536;50.860;4.286;2024-03-17T03:40:26;10.00;99.90
22738;DHT22;11536;50.860;4.286;2024-03-17T03:42:52;10.00;99.90
22738;DHT22;11536;50.860;4.286;2024-03-17T03:45:18;10.00;99.90
22738;DHT22;11536;50.860;4.286;2024-03-17T03:47:44;10.00;99.90
22738;DHT22;11536;50.860;4.286;2024-03-17T03:50:10;10.00;99.90
22738;DHT22;11536;50.860;4.286;2024-03-17T03:52:38;10.00;99.90
22738;DHT22;11536;50.860;4.286;2024-03-17T03:55:06;10.00;99.90
22738;DHT22;11536;50.860;4.286;2024-03-17T03:57:33;9.90;99.90
22738;DHT22;11536;50.860;4.286;2024-03-17T04:00:05;9.90;99.90
22738;DHT22;11536;50.860;4.286;2024-03-17T04:02:51;9.90;99.90
22738;DHT22;11536;50.860;4.286;2024-03-17T04:05:18;9.90;99.90
22738;DHT22;11536;50.860;4.286;2024-03-17T04:07:45;9.80;99.90
22738;DHT22;11536;50.860;4.286;2024-03-17T04:10:12;9.80;99.90
22738;DHT22;11536;50.860;4.286;2024-03-17T04:12:38;9.80;99.90
22738;DHT22;11536;50.860;4.286;2024-03-17T04:15:04;9.80;99.90
22738;DHT22;11536;50.860;4.286;2024-03-17T04:17:31;9.80;99.90
22738;DHT22;11536;50.860;4.286;2024-03-17T04:19:58;9.80;99.90
22738;DHT22;11536;50.860;4.286;2024-03-17T04:22:23;9.80;99.90
22738;DHT22;11536;50.860;4.286;2024-03-17T04:24:50;9.70;99.90
22738;DHT22;11536;50.860;4.286;2024-03-17T04:27:25;9.70;99.90
22738;DHT22;11536;50.860;4.286;2024-03-17T04:29:52;9.70;99.90
22738;DHT22;11536;50.860;4.286;2024-03-17T04:32:19;9.70;99.90
22738;DHT22;11536;50.860;4.286;2024-03-17T04:34:45;9.70;99.90
22738;DHT22;11536;50.860;4.286;2024-03-17T04:37:11;9.70;99.90
22738;DHT22;11536;50.860;4.286;2024-03-17T04:39:38;9.70;99.90
22738;DHT22;11536;50.860;4.286;2024-03-17T04:42:05;9.70;99.90
22738;DHT22;11536;50.860;4.286;2024-03-17T04:44:32;9.70;99.90
22738;DHT22;11536;50.860;4.286;2024-03-17T04:47:02;9.70;99.90
22738;DHT22;11536;50.860;4.286;2024-03-17T04:49:38;9.70;99.90
22738;DHT22;11536;50.860;4.286;2024-03-17T04:52:04;9.70;99.90
22738;DHT22;11536;50.860;4.286;2024-03-17T04:54:34;9.70;99.90
22738;DHT22;11536;50.860;4.286;2024-03-17T04:57:00;9.70;99.90
22738;DHT22;11536;50.860;4.286;2024-03-17T04:59:26;9.70;99.90
22738;DHT22;11536;50.860;4.286;2024-03-17T05:01:52;9.70;99.90
22738;DHT22;11536;50.860;4.286;2024-03-17T05:04:18;9.60;99.90
22738;DHT22;11536;50.860;4.286;2024-03-17T05:06:44;9.60;99.90
22738;DHT22;11536;50.860;4.286;2024-03-17T05:09:15;9.60;99.90
22738;DHT22;11536;50.860;4.286;2024-03-17T05:11:41;9.60;99.90
22738;DHT22;11536;50.860;4.286;2024-03-17T05:14:08;9.60;99.90
22738;DHT22;11536;50.860;4.286;2024-03-17T05:16:34;9.60;99.90
22738;DHT22;11536;50.860;4.286;2024-03-17T05:18:59;9.60;99.90
22738;DHT22;11536;50.860;4.286;2024-03-17T05:21:25;9.60;99.90
22738;DHT22;11536;50.860;4.286;2024-03-17T05:23:52;9.60;99.90
22738;DHT22;11536;50.860;4.286;2024-03-17T05:26:18;9.60;99.90
22738;DHT22;11536;50.860;4.286;2024-03-17T05:28:43;9.60;99.90
22738;DHT22;11536;50.860;4.286;2024-03-17T05:31:10;9.60;99.90
22738;DHT22;11536;50.860;4.286;2024-03-17T05:33:35;9.60;99.90
22738;DHT22;11536;50.860;4.286;2024-03-17T05:36:02;9.60;99.90
22738;DHT22;11536;50.860;4.286;2024-03-17T05:38:29;9.70;99.90
22738;DHT22;11536;50.860;4.286;2024-03-17T05:40:55;9.70;99.90
22738;DHT22;11536;50.860;4.286;2024-03-17T05:43:22;9.70;99.90
22738;DHT22;11536;50.860;4.286;2024-03-17T05:46:08;9.70;99.90
22738;DHT22;11536;50.860;4.286;2024-03-17T05:48:35;9.70;99.90
22738;DHT22;11536;50.860;4.286;2024-03-17T05:51:03;9.70;99.90
22738;DHT22;11536;50.860;4.286;2024-03-17T05:53:29;9.70;99.90
22738;DHT22;11536;50.860;4.286;2024-03-17T05:55:58;9.70;99.90
22738;DHT22;11536;50.860;4.286;2024-03-17T05:58:24;9.70;99.90
22738;DHT22;11536;50.860;4.286;2024-03-17T06:00:50;9.70;99.90
22738;DHT22;11536;50.860;4.286;2024-03-17T06:03:15;9.70;99.90
22738;DHT22;11536;50.860;4.286;2024-03-17T06:05:43;9.70;99.90
22738;DHT22;11536;50.860;4.286;2024-03-17T06:08:11;9.70;99.90
22738;DHT22;11536;50.860;4.286;2024-03-17T06:10:37;9.80;99.90
22738;DHT22;11536;50.860;4.286;2024-03-17T06:13:04;9.70;99.90
22738;DHT22;11536;50.860;4.286;2024-03-17T06:15:30;9.80;99.90
22738;DHT22;11536;50.860;4.286;2024-03-17T06:17:56;9.80;99.90
22738;DHT22;11536;50.860;4.286;2024-03-17T06:20:25;9.80;99.90
22738;DHT22;11536;50.860;4.286;2024-03-17T06:22:54;9.90;99.90
22738;DHT22;11536;50.860;4.286;2024-03-17T06:25:20;9.90;99.90
22738;DHT22;11536;50.860;4.286;2024-03-17T06:27:52;9.90;99.90
22738;DHT22;11536;50.860;4.286;2024-03-17T06:30:18;9.90;99.90
22738;DHT22;11536;50.860;4.286;2024-03-17T06:32:45;9.90;99.90
22738;DHT22;11536;50.860;4.286;2024-03-17T06:35:11;10.00;99.90
22738;DHT22;11536;50.860;4.286;2024-03-17T06:37:37;10.00;99.90
22738;DHT22;11536;50.860;4.286;2024-03-17T06:40:04;10.00;99.90
22738;DHT22;11536;50.860;4.286;2024-03-17T06:42:30;10.00;99.90
22738;DHT22;11536;50.860;4.286;2024-03-17T06:44:56;10.10;99.90
22738;DHT22;11536;50.860;4.286;2024-03-17T06:47:22;10.10;99.90
22738;DHT22;11536;50.860;4.286;2024-03-17T06:49:48;10.10;99.90
22738;DHT22;11536;50.860;4.286;2024-03-17T06:52:14;10.10;99.90
22738;DHT22;11536;50.860;4.286;2024-03-17T06:54:39;10.20;99.90
22738;DHT22;11536;50.860;4.286;2024-03-17T06:57:05;10.20;99.90
22738;DHT22;11536;50.860;4.286;2024-03-17T06:59:34;10.20;99.90
22738;DHT22;11536;50.860;4.286;2024-03-17T07:02:00;10.20;99.90
22738;DHT22;11536;50.860;4.286;2024-03-17T07:04:25;10.30;99.90
22738;DHT22;11536;50.860;4.286;2024-03-17T07:06:51;10.30;99.90
22738;DHT22;11536;50.860;4.286;2024-03-17T07:09:16;10.40;99.90
22738;DHT22;11536;50.860;4.286;2024-03-17T07:11:45;10.40;99.90
22738;DHT22;11536;50.860;4.286;2024-03-17T07:14:10;10.50;99.90
22738;DHT22;11536;50.860;4.286;2024-03-17T07:16:36;10.50;99.90
22738;DHT22;11536;50.860;4.286;2024-03-17T07:19:02;10.60;99.90
22738;DHT22;11536;50.860;4.286;2024-03-17T07:21:28;10.60;99.90
22738;DHT22;11536;50.860;4.286;2024-03-17T07:23:53;10.60;99.90
22738;DHT22;11536;50.860;4.286;2024-03-17T07:26:19;10.60;99.90
22738;DHT22;11536;50.860;4.286;2024-03-17T07:28:45;10.70;99.90
22738;DHT22;11536;50.860;4.286;2024-03-17T07:31:11;10.70;99.90
22738;DHT22;11536;50.860;4.286;2024-03-17T07:33:37;10.70;99.90
22738;DHT22;11536;50.860;4.286;2024-03-17T07:36:02;10.80;99.90
22738;DHT22;11536;50.860;4.286;2024-03-17T07:38:30;10.80;99.90
22738;DHT22;11536;50.860;4.286;2024-03-17T07:41:01;10.80;99.90
22738;DHT22;11536;50.860;4.286;2024-03-17T07:43:28;10.90;99.90
22738;DHT22;11536;50.860;4.286;2024-03-17T07:46:08;10.90;99.90
22738;DHT22;11536;50.860;4.286;2024-03-17T07:48:39;10.90;99.90
22738;DHT22;11536;50.860;4.286;2024-03-17T07:51:10;11.00;99.90
22738;DHT22;11536;50.860;4.286;2024-03-17T07:53:37;11.10;99.90
22738;DHT22;11536;50.860;4.286;2024-03-17T07:56:05;11.10;99.90
22738;DHT22;11536;50.860;4.286;2024-03-17T07:58:32;11.10;99.90
22738;DHT22;11536;50.860;4.286;2024-03-17T08:01:00;11.10;99.90
22738;DHT22;11536;50.860;4.286;2024-03-17T08:03:27;11.20;99.90
22738;DHT22;11536;50.860;4.286;2024-03-17T08:05:53;11.20;99.90
22738;DHT22;11536;50.860;4.286;2024-03-17T08:08:19;11.20;99.90
22738;DHT22;11536;50.860;4.286;2024-03-17T08:10:45;11.30;99.90
22738;DHT22;11536;50.860;4.286;2024-03-17T08:13:14;11.30;99.90
22738;DHT22;11536;50.860;4.286;2024-03-17T08:15:42;11.40;99.90
22738;DHT22;11536;50.860;4.286;2024-03-17T08:18:08;11.40;99.90
22738;DHT22;11536;50.860;4.286;2024-03-17T08:20:41;11.40;99.90
22738;DHT22;11536;50.860;4.286;2024-03-17T08:23:08;11.40;99.90
22738;DHT22;11536;50.860;4.286;2024-03-17T08:25:34;11.40;99.90
22738;DHT22;11536;50.860;4.286;2024-03-17T08:28:00;11.50;99.90
22738;DHT22;11536;50.860;4.286;2024-03-17T08:30:26;11.60;99.90
22738;DHT22;11536;50.860;4.286;2024-03-17T08:32:52;11.60;99.90
22738;DHT22;11536;50.860;4.286;2024-03-17T08:35:17;11.60;99.90
22738;DHT22;11536;50.860;4.286;2024-03-17T08:37:43;11.60;99.90
22738;DHT22;11536;50.860;4.286;2024-03-17T08:40:10;11.60;99.90
22738;DHT22;11536;50.860;4.286;2024-03-17T08:42:36;11.60;99.90
22738;DHT22;11536;50.860;4.286;2024-03-17T08:45:02;11.70;99.90
22738;DHT22;11536;50.860;4.286;2024-03-17T08:47:28;11.70;99.90
22738;DHT22;11536;50.860;4.286;2024-03-17T08:49:54;11.80;99.90
22738;DHT22;11536;50.860;4.286;2024-03-17T08:52:19;11.80;99.90
22738;DHT22;11536;50.860;4.286;2024-03-17T08:54:49;11.90;99.90
22738;DHT22;11536;50.860;4.286;2024-03-17T08:57:18;12.00;99.90
22738;DHT22;11536;50.860;4.286;2024-03-17T08:59:47;12.00;99.90
22738;DHT22;11536;50.860;4.286;2024-03-17T09:02:13;12.00;99.90
22738;DHT22;11536;50.860;4.286;2024-03-17T09:04:40;12.10;99.90
22738;DHT22;11536;50.860;4.286;2024-03-17T09:07:06;12.10;99.90
22738;DHT22;11536;50.860;4.286;2024-03-17T09:09:32;12.00;99.90
22738;DHT22;11536;50.860;4.286;2024-03-17T09:11:58;12.10;99.90
22738;DHT22;11536;50.860;4.286;2024-03-17T09:14:23;12.10;99.90
22738;DHT22;11536;50.860;4.286;2024-03-17T09:16:49;12.10;99.90
22738;DHT22;11536;50.860;4.286;2024-03-17T09:19:15;12.20;99.90
22738;DHT22;11536;50.860;4.286;2024-03-17T09:21:41;12.20;99.90
22738;DHT22;11536;50.860;4.286;2024-03-17T09:24:07;12.20;99.90
22738;DHT22;11536;50.860;4.286;2024-03-17T09:26:36;12.10;99.90
22738;DHT22;11536;50.860;4.286;2024-03-17T09:29:05;12.10;99.90
22738;DHT22;11536;50.860;4.286;2024-03-17T09:31:30;12.10;99.90
22738;DHT22;11536;50.860;4.286;2024-03-17T09:33:59;12.10;99.90
22738;DHT22;11536;50.860;4.286;2024-03-17T09:36:24;12.10;99.90
22738;DHT22;11536;50.860;4.286;2024-03-17T09:38:50;12.10;99.90
22738;DHT22;11536;50.860;4.286;2024-03-17T09:41:23;12.10;99.90
22738;DHT22;11536;50.860;4.286;2024-03-17T09:43:54;12.20;99.90
22738;DHT22;11536;50.860;4.286;2024-03-17T09:46:25;12.20;99.90
22738;DHT22;11536;50.860;4.286;2024-03-17T09:48:52;12.20;99.90
22738;DHT22;11536;50.860;4.286;2024-03-17T09:51:20;12.30;99.90
22738;DHT22;11536;50.860;4.286;2024-03-17T09:53:46;12.30;99.90
22738;DHT22;11536;50.860;4.286;2024-03-17T09:56:17;12.40;99.90
22738;DHT22;11536;50.860;4.286;2024-03-17T09:58:46;12.40;99.90
22738;DHT22;11536;50.860;4.286;2024-03-17T10:01:12;12.40;99.90
22738;DHT22;11536;50.860;4.286;2024-03-17T10:03:49;12.50;99.90
22738;DHT22;11536;50.860;4.286;2024-03-17T10:06:26;12.50;99.90
22738;DHT22;11536;50.860;4.286;2024-03-17T10:08:59;12.60;99.90
22738;DHT22;11536;50.860;4.286;2024-03-17T10:11:33;12.60;99.90
22738;DHT22;11536;50.860;4.286;2024-03-17T10:14:02;12.60;99.90
22738;DHT22;11536;50.860;4.286;2024-03-17T10:16:29;12.60;99.90
22738;DHT22;11536;50.860;4.286;2024-03-17T10:19:14;12.70;99.90
22738;DHT22;11536;50.860;4.286;2024-03-17T10:21:45;12.70;99.90
22738;DHT22;11536;50.860;4.286;2024-03-17T10:24:24;12.70;99.90
22738;DHT22;11536;50.860;4.286;2024-03-17T10:26:52;12.80;99.90
22738;DHT22;11536;50.860;4.286;2024-03-17T10:29:30;12.80;99.90
22738;DHT22;11536;50.860;4.286;2024-03-17T10:31:57;12.80;99.90
22738;DHT22;11536;50.860;4.286;2024-03-17T10:34:25;12.80;99.90
22738;DHT22;11536;50.860;4.286;2024-03-17T10:39:40;12.90;99.90
22738;DHT22;11536;50.860;4.286;2024-03-17T10:42:07;12.90;99.90
22738;DHT22;11536;50.860;4.286;2024-03-17T10:44:35;12.90;99.90
22738;DHT22;11536;50.860;4.286;2024-03-17T10:47:02;13.00;99.90
22738;DHT22;11536;50.860;4.286;2024-03-17T10:49:33;13.00;99.90
22738;DHT22;11536;50.860;4.286;2024-03-17T10:52:01;13.10;99.90
22738;DHT22;11536;50.860;4.286;2024-03-17T10:54:28;13.10;99.90
22738;DHT22;11536;50.860;4.286;2024-03-17T10:59:39;13.20;99.90
22738;DHT22;11536;50.860;4.286;2024-03-17T11:02:25;13.30;99.90
22738;DHT22;11536;50.860;4.286;2024-03-17T11:04:59;13.40;99.90
22738;DHT22;11536;50.860;4.286;2024-03-17T11:07:26;13.50;99.90
22738;DHT22;11536;50.860;4.286;2024-03-17T11:09:54;13.50;99.90
22738;DHT22;11536;50.860;4.286;2024-03-17T11:12:53;13.60;99.90
22738;DHT22;11536;50.860;4.286;2024-03-17T11:22:44;14.00;99.90
22738;DHT22;11536;50.860;4.286;2024-03-17T11:27:55;14.20;99.90
22738;DHT22;11536;50.860;4.286;2024-03-17T11:30:48;14.20;99.90
22738;DHT22;11536;50.860;4.286;2024-03-17T11:38:58;14.50;99.90
22738;DHT22;11536;50.860;4.286;2024-03-17T11:41:38;14.50;99.90
22738;DHT22;11536;50.860;4.286;2024-03-17T11:52:01;14.90;99.90
22738;DHT22;11536;50.860;4.286;2024-03-17T11:54:30;15.00;99.90
22738;DHT22;11536;50.860;4.286;2024-03-17T11:57:04;15.00;99.90
22738;DHT22;11536;50.860;4.286;2024-03-17T11:59:32;15.10;99.90
22738;DHT22;11536;50.860;4.286;2024-03-17T12:01:59;15.10;99.90
22738;DHT22;11536;50.860;4.286;2024-03-17T12:04:25;15.20;99.90
22738;DHT22;11536;50.860;4.286;2024-03-17T12:06:58;15.20;99.90
22738;DHT22;11536;50.860;4.286;2024-03-17T12:12:17;15.40;99.90
22738;DHT22;11536;50.860;4.286;2024-03-17T12:14:43;15.40;99.90
22738;DHT22;11536;50.860;4.286;2024-03-17T12:17:12;15.40;99.90
22738;DHT22;11536;50.860;4.286;2024-03-17T12:19:39;15.40;99.90
22738;DHT22;11536;50.860;4.286;2024-03-17T12:22:06;15.40;99.90
22738;DHT22;11536;50.860;4.286;2024-03-17T12:24:35;15.50;99.90
22738;DHT22;11536;50.860;4.286;2024-03-17T12:27:06;15.50;99.90
22738;DHT22;11536;50.860;4.286;2024-03-17T12:29:39;15.60;99.90
22738;DHT22;11536;50.860;4.286;2024-03-17T12:32:16;15.60;99.90
22738;DHT22;11536;50.860;4.286;2024-03-17T12:34:46;15.60;99.90
22738;DHT22;11536;50.860;4.286;2024-03-17T12:37:26;15.60;99.90
22738;DHT22;11536;50.860;4.286;2024-03-17T12:40:01;15.60;99.90
22738;DHT22;11536;50.860;4.286;2024-03-17T12:42:27;15.60;99.90
22738;DHT22;11536;50.860;4.286;2024-03-17T12:44:55;15.60;99.90
22738;DHT22;11536;50.860;4.286;2024-03-17T12:47:25;15.70;99.90
22738;DHT22;11536;50.860;4.286;2024-03-17T12:49:58;15.70;99.90
22738;DHT22;11536;50.860;4.286;2024-03-17T12:55:09;15.80;99.90
22738;DHT22;11536;50.860;4.286;2024-03-17T13:03:34;16.00;99.90
22738;DHT22;11536;50.860;4.286;2024-03-17T13:06:01;16.00;99.90
22738;DHT22;11536;50.860;4.286;2024-03-17T13:08:28;16.00;99.90
22738;DHT22;11536;50.860;4.286;2024-03-17T13:10:54;16.00;99.90
22738;DHT22;11536;50.860;4.286;2024-03-17T13:13:20;16.00;99.90
22738;DHT22;11536;50.860;4.286;2024-03-17T13:15:45;16.00;99.90
22738;DHT22;11536;50.860;4.286;2024-03-17T13:18:16;16.00;99.90
22738;DHT22;11536;50.860;4.286;2024-03-17T13:20:45;16.00;99.90
22738;DHT22;11536;50.860;4.286;2024-03-17T13:23:15;16.00;99.90
22738;DHT22;11536;50.860;4.286;2024-03-17T13:25:42;16.00;99.90
22738;DHT22;11536;50.860;4.286;2024-03-17T13:28:10;16.00;99.90
22738;DHT22;11536;50.860;4.286;2024-03-17T13:30:37;16.00;99.90
22738;DHT22;11536;50.860;4.286;2024-03-17T13:33:04;16.00;99.90
22738;DHT22;11536;50.860;4.286;2024-03-17T13:35:37;16.00;99.90
22738;DHT22;11536;50.860;4.286;2024-03-17T13:38:05;16.00;99.90
22738;DHT22;11536;50.860;4.286;2024-03-17T13:40:32;16.00;99.90
22738;DHT22;11536;50.860;4.286;2024-03-17T13:42:59;16.00;99.90
22738;DHT22;11536;50.860;4.286;2024-03-17T13:45:27;15.90;99.90
22738;DHT22;11536;50.860;4.286;2024-03-17T13:47:57;15.90;99.90
22738;DHT22;11536;50.860;4.286;2024-03-17T13:50:23;15.90;99.90
22738;DHT22;11536;50.860;4.286;2024-03-17T13:52:49;15.90;99.90
22738;DHT22;11536;50.860;4.286;2024-03-17T13:55:20;15.90;99.90
22738;DHT22;11536;50.860;4.286;2024-03-17T13:57:48;15.90;99.90
22738;DHT22;11536;50.860;4.286;2024-03-17T14:00:14;15.90;99.90
22738;DHT22;11536;50.860;4.286;2024-03-17T14:02:48;15.80;99.90
22738;DHT22;11536;50.860;4.286;2024-03-17T14:05:16;15.80;99.90
22738;DHT22;11536;50.860;4.286;2024-03-17T14:07:43;15.80;99.90
22738;DHT22;11536;50.860;4.286;2024-03-17T14:10:11;15.80;99.90
22738;DHT22;11536;50.860;4.286;2024-03-17T14:12:37;15.70;99.90
22738;DHT22;11536;50.860;4.286;2024-03-17T14:15:04;15.70;99.90
22738;DHT22;11536;50.860;4.286;2024-03-17T14:17:36;15.60;99.90
22738;DHT22;11536;50.860;4.286;2024-03-17T14:20:02;15.60;99.90
22738;DHT22;11536;50.860;4.286;2024-03-17T14:22:28;15.60;99.90
22738;DHT22;11536;50.860;4.286;2024-03-17T14:24:54;15.50;99.90
22738;DHT22;11536;50.860;4.286;2024-03-17T14:27:20;15.50;99.90
22738;DHT22;11536;50.860;4.286;2024-03-17T14:29:46;15.50;99.90
22738;DHT22;11536;50.860;4.286;2024-03-17T14:32:12;15.50;99.90
22738;DHT22;11536;50.860;4.286;2024-03-17T14:34:39;15.50;99.90
22738;DHT22;11536;50.860;4.286;2024-03-17T14:37:05;15.50;99.90
22738;DHT22;11536;50.860;4.286;2024-03-17T14:39:31;15.50;99.90
22738;DHT22;11536;50.860;4.286;2024-03-17T14:41:57;15.50;99.90
22738;DHT22;11536;50.860;4.286;2024-03-17T14:44:23;15.60;99.90
22738;DHT22;11536;50.860;4.286;2024-03-17T14:46:49;15.60;99.90
22738;DHT22;11536;50.860;4.286;2024-03-17T14:49:19;15.60;99.90
22738;DHT22;11536;50.860;4.286;2024-03-17T14:51:45;15.60;99.90
22738;DHT22;11536;50.860;4.286;2024-03-17T14:54:11;15.60;99.90
22738;DHT22;11536;50.860;4.286;2024-03-17T14:56:38;15.50;99.90
22738;DHT22;11536;50.860;4.286;2024-03-17T14:59:05;15.50;99.90
22738;DHT22;11536;50.860;4.286;2024-03-17T15:01:31;15.50;99.90
22738;DHT22;11536;50.860;4.286;2024-03-17T15:03:57;15.40;99.90
22738;DHT22;11536;50.860;4.286;2024-03-17T15:06:22;15.40;99.90
22738;DHT22;11536;50.860;4.286;2024-03-17T15:08:48;15.40;99.90
22738;DHT22;11536;50.860;4.286;2024-03-17T15:11:14;15.30;99.90
22738;DHT22;11536;50.860;4.286;2024-03-17T15:13:41;15.30;99.90
22738;DHT22;11536;50.860;4.286;2024-03-17T15:16:08;15.20;99.90
22738;DHT22;11536;50.860;4.286;2024-03-17T15:18:35;15.20;99.90
22738;DHT22;11536;50.860;4.286;2024-03-17T15:21:01;15.20;99.90
22738;DHT22;11536;50.860;4.286;2024-03-17T15:23:30;15.20;99.90
22738;DHT22;11536;50.860;4.286;2024-03-17T15:26:03;15.20;99.90
22738;DHT22;11536;50.860;4.286;2024-03-17T15:28:36;15.10;99.90
22738;DHT22;11536;50.860;4.286;2024-03-17T15:31:04;15.10;99.90
22738;DHT22;11536;50.860;4.286;2024-03-17T15:33:29;15.10;99.90
22738;DHT22;11536;50.860;4.286;2024-03-17T15:35:55;15.00;99.90
22738;DHT22;11536;50.860;4.286;2024-03-17T15:38:21;15.00;99.90
22738;DHT22;11536;50.860;4.286;2024-03-17T15:40:47;14.90;99.90
22738;DHT22;11536;50.860;4.286;2024-03-17T15:43:13;14.90;99.90
22738;DHT22;11536;50.860;4.286;2024-03-17T15:45:39;14.90;99.90
22738;DHT22;11536;50.860;4.286;2024-03-17T15:48:05;14.80;99.90
22738;DHT22;11536;50.860;4.286;2024-03-17T15:50:31;14.90;99.90
22738;DHT22;11536;50.860;4.286;2024-03-17T15:52:57;14.80;99.90
22738;DHT22;11536;50.860;4.286;2024-03-17T15:55:23;14.80;99.90
22738;DHT22;11536;50.860;4.286;2024-03-17T15:57:49;14.80;99.90
22738;DHT22;11536;50.860;4.286;2024-03-17T16:00:15;14.80;99.90
22738;DHT22;11536;50.860;4.286;2024-03-17T16:02:44;14.80;99.90
22738;DHT22;11536;50.860;4.286;2024-03-17T16:05:10;14.80;99.90
22738;DHT22;11536;50.860;4.286;2024-03-17T16:07:39;14.80;99.90
22738;DHT22;11536;50.860;4.286;2024-03-17T16:10:05;14.80;99.90
22738;DHT22;11536;50.860;4.286;2024-03-17T16:12:32;14.80;99.90
22738;DHT22;11536;50.860;4.286;2024-03-17T16:15:00;14.80;99.90
22738;DHT22;11536;50.860;4.286;2024-03-17T16:17:29;14.80;99.90
22738;DHT22;11536;50.860;4.286;2024-03-17T16:19:56;14.80;99.90